Flight Briefing for CMB862

Departure Arrival
KeflavĂ­k International Airport (BIKF)
Click to view FAA NOTAMS
Norfolk Naval Station (Chambers Field) (KNGU)
Click to view FAA NOTAMS
Departure Time Arrival Time
N/A N/A
Aircraft Distance
B757-200SF 2503nm
Departure METAR Arrival METAR
BIKF 271130Z 35010KT 310V030 CAVOK 11/M01 Q1014 KNGU 271059Z 32005KT 9SM FEW060 BKN110 BKN300 24/21 A2994 RMK AO2 SLP137 T02390211
Suggested Route
RALOV1D RALOV RAKIS 6235N N6040 5944N 5650N YAY J580 YQY YQI J585 ACK J62 RIFLE J174 SWL RAPTR


View recent IFR Routes data
Notes
USTRANSCOM CONTRACT FLIGHT

Charts and Procedures

Charts for BIKF
No chart available
Charts for KNGU
No chart available

Windy.com Weather Map